createdAt,value
2022-12-23T00:04:44.890Z,100.00
2022-12-23T00:09:48.005Z,100.00
2022-12-23T00:15:07.344Z,100.00
2022-12-23T00:20:13.528Z,100.00
2022-12-23T00:25:17.849Z,100.00
2022-12-23T00:30:21.353Z,100.00
2022-12-23T00:35:24.608Z,100.00
2022-12-23T00:40:46.685Z,100.00
2022-12-23T00:45:50.718Z,100.00
2022-12-23T00:50:54.275Z,100.00
2022-12-23T00:55:57.381Z,100.00
2022-12-23T01:01:19.612Z,100.00
2022-12-23T01:06:23.442Z,100.00
2022-12-23T01:11:27.174Z,100.00
2022-12-23T01:16:30.382Z,100.00
2022-12-23T01:21:34.719Z,100.00
2022-12-23T01:26:37.825Z,100.00
2022-12-23T01:31:41.709Z,100.00
2022-12-23T01:36:44.881Z,100.00
2022-12-23T01:42:06.641Z,100.00
2022-12-23T01:47:15.229Z,100.00
2022-12-23T01:52:18.919Z,100.00
2022-12-23T01:57:23.136Z,100.00
2022-12-23T02:02:48.017Z,100.00
2022-12-23T02:08:12.004Z,100.00
2022-12-23T02:13:29.785Z,100.00
2022-12-23T02:18:59.789Z,100.00
2022-12-23T02:24:27.648Z,100.00
2022-12-23T02:29:50.342Z,100.00
2022-12-23T02:35:01.890Z,100.00
2022-12-23T02:40:42.487Z,100.00
2022-12-23T02:46:26.635Z,100.00
2022-12-23T02:51:34.588Z,100.00
2022-12-23T02:56:43.975Z,100.00
2022-12-23T03:01:48.967Z,100.00
2022-12-23T03:06:54.743Z,100.00
2022-12-23T03:12:13.119Z,100.00
2022-12-23T03:17:39.368Z,100.00
2022-12-23T03:23:13.241Z,100.00
2022-12-23T03:28:34.421Z,100.00
2022-12-23T03:33:43.258Z,100.00
2022-12-23T03:38:47.882Z,100.00
2022-12-23T03:43:59.284Z,100.00
2022-12-23T03:49:09.457Z,100.00
2022-12-23T03:54:19.809Z,100.00
2022-12-23T03:59:29.064Z,100.00
2022-12-23T04:04:54.244Z,100.00
2022-12-23T04:09:59.406Z,100.00
2022-12-23T04:15:10.720Z,100.00
2022-12-23T04:20:16.556Z,100.00
2022-12-23T04:25:19.976Z,100.00
2022-12-23T04:30:26.720Z,100.00
2022-12-23T04:35:34.808Z,100.00
2022-12-23T04:40:39.543Z,100.00
2022-12-23T04:45:42.627Z,100.00
2022-12-23T04:50:46.149Z,100.00
2022-12-23T04:55:52.536Z,100.00
2022-12-23T05:01:12.335Z,100.00
2022-12-23T05:06:15.482Z,100.00
2022-12-23T05:11:18.602Z,100.00
2022-12-23T05:16:22.418Z,100.00
2022-12-23T05:21:26.326Z,100.00
2022-12-23T05:26:29.443Z,100.00
2022-12-23T05:31:33.167Z,100.00
2022-12-23T05:36:36.829Z,100.00
2022-12-23T05:41:40.013Z,100.00
2022-12-23T05:46:43.531Z,100.00
2022-12-23T05:51:46.707Z,100.00
2022-12-23T05:56:50.896Z,100.00
2022-12-23T06:01:55.537Z,100.00
2022-12-23T06:06:59.196Z,100.00
2022-12-23T06:12:03.070Z,100.00
2022-12-23T06:17:06.683Z,100.00
2022-12-23T06:22:10.360Z,100.00
2022-12-23T06:27:14.899Z,100.00
2022-12-23T06:32:18.834Z,100.00
2022-12-23T06:37:22.187Z,100.00
2022-12-23T06:42:25.641Z,100.00
2022-12-23T06:47:29.072Z,100.00
2022-12-23T06:52:32.493Z,100.00
2022-12-23T06:57:36.165Z,100.00
2022-12-23T07:02:39.870Z,100.00
2022-12-23T07:07:43.196Z,100.00
2022-12-23T07:12:50.684Z,100.00
2022-12-23T07:17:55.576Z,81.01
2022-12-23T07:22:58.872Z,78.60
2022-12-23T07:28:02.501Z,83.92
2022-12-23T07:33:05.500Z,84.99
2022-12-23T07:38:09.545Z,64.63
2022-12-23T07:43:12.723Z,50.64
2022-12-23T07:48:16.371Z,43.49
2022-12-23T07:53:19.590Z,48.07
2022-12-23T07:58:23.253Z,55.21
2022-12-23T08:03:26.496Z,46.80
2022-12-23T08:08:29.764Z,40.78
2022-12-23T08:13:35.455Z,40.46
2022-12-23T08:18:40.761Z,39.73
2022-12-23T08:23:44.630Z,37.90
2022-12-23T08:28:49.995Z,44.59
2022-12-23T08:33:56.312Z,42.23
2022-12-23T08:39:04.599Z,38.78
2022-12-23T08:44:09.640Z,41.06
2022-12-23T08:49:13.076Z,34.15
2022-12-23T08:54:18.096Z,35.28
2022-12-23T08:59:21.639Z,39.72
2022-12-23T09:04:25.745Z,35.77
2022-12-23T09:09:29.179Z,32.87
2022-12-23T09:14:32.282Z,30.03
2022-12-23T09:19:35.855Z,33.57
2022-12-23T09:24:39.813Z,32.64
2022-12-23T09:29:43.981Z,34.38
2022-12-23T09:34:47.287Z,33.93
2022-12-23T09:39:50.681Z,34.79
2022-12-23T09:45:35.497Z,32.34
2022-12-23T09:50:43.059Z,35.12
2022-12-23T09:55:46.652Z,34.03
2022-12-23T10:01:16.582Z,33.80
2022-12-23T10:06:30.935Z,33.23
2022-12-23T10:11:44.857Z,33.94
2022-12-23T10:16:53.351Z,34.26
2022-12-23T10:22:06.570Z,35.12
2022-12-23T10:27:39.682Z,35.99
2022-12-23T10:33:04.282Z,36.55
2022-12-23T10:38:33.052Z,38.23
2022-12-23T10:43:53.306Z,35.87
2022-12-23T10:49:11.157Z,38.95
2022-12-23T10:54:36.006Z,37.35
2022-12-23T10:59:39.880Z,37.90
2022-12-23T11:04:49.144Z,40.76
2022-12-23T11:10:07.866Z,40.56
2022-12-23T11:15:36.988Z,39.66
2022-12-23T11:20:45.290Z,41.79
2022-12-23T11:25:49.095Z,41.20
2022-12-23T11:31:05.910Z,40.78
2022-12-23T11:36:13.037Z,42.47
2022-12-23T11:41:26.614Z,41.70
2022-12-23T11:46:32.913Z,41.71
2022-12-23T11:51:36.428Z,41.02
2022-12-23T11:56:41.992Z,40.60
2022-12-23T12:01:49.458Z,39.21
2022-12-23T12:06:56.685Z,39.52
2022-12-23T12:12:14.357Z,38.80
2022-12-23T12:17:23.452Z,38.63
2022-12-23T12:22:40.321Z,38.34
2022-12-23T12:27:48.665Z,38.27
2022-12-23T12:33:01.191Z,38.04
2022-12-23T12:38:34.252Z,38.37
2022-12-23T12:44:19.180Z,38.70
2022-12-23T12:49:48.026Z,37.57
2022-12-23T12:54:58.696Z,36.73
2022-12-23T13:00:06.342Z,40.19
2022-12-23T13:05:35.939Z,42.54
2022-12-23T13:10:45.191Z,42.74
2022-12-23T13:15:52.171Z,36.62
2022-12-23T13:21:10.878Z,33.93
2022-12-23T13:26:25.421Z,35.82
2022-12-23T13:31:48.211Z,33.68
2022-12-23T13:36:51.541Z,32.08
2022-12-23T13:42:04.648Z,33.90
2022-12-23T13:47:19.151Z,33.50
2022-12-23T13:52:37.168Z,34.22
2022-12-23T13:58:15.704Z,37.15
2022-12-23T14:03:25.411Z,40.19
2022-12-23T14:08:43.391Z,43.18
2022-12-23T14:14:02.400Z,39.45
2022-12-23T14:19:05.412Z,40.75
2022-12-23T14:24:26.887Z,43.82
2022-12-23T14:29:59.965Z,46.10
2022-12-23T14:35:35.429Z,50.97
2022-12-23T14:40:43.570Z,53.53
2022-12-23T14:45:47.040Z,56.54
2022-12-23T14:51:02.226Z,56.97
2022-12-23T14:56:20.777Z,59.56
2022-12-23T15:01:29.355Z,61.17
2022-12-23T15:06:38.630Z,62.45
2022-12-23T15:11:42.983Z,63.69
2022-12-23T15:16:46.770Z,65.14
2022-12-23T15:22:03.248Z,66.25
2022-12-23T15:27:29.257Z,68.40
2022-12-23T15:32:34.103Z,69.47
2022-12-23T15:37:38.410Z,71.47
2022-12-23T15:42:49.180Z,73.03
2022-12-23T15:47:52.771Z,73.70
2022-12-23T15:52:59.221Z,74.73
2022-12-23T15:58:04.489Z,75.62
2022-12-23T16:03:48.872Z,75.99
2022-12-23T16:08:58.047Z,76.27
2022-12-23T16:14:21.370Z,77.65
2022-12-23T16:19:40.473Z,76.73
2022-12-23T16:24:47.075Z,78.42
2022-12-23T16:29:50.854Z,78.78
2022-12-23T16:34:54.484Z,79.10
2022-12-23T16:39:57.583Z,80.15
2022-12-23T16:45:01.326Z,82.09
2022-12-23T16:50:06.124Z,83.19
2022-12-23T16:55:20.989Z,83.72
2022-12-23T17:00:24.564Z,83.21
2022-12-23T17:05:28.073Z,82.78
2022-12-23T17:10:31.718Z,83.14
2022-12-23T17:15:34.883Z,84.53
2022-12-23T17:20:38.226Z,85.49
2022-12-23T17:25:42.208Z,85.73
2022-12-23T17:30:46.207Z,86.04
2022-12-23T17:35:49.442Z,86.75
2022-12-23T17:40:55.322Z,86.88
2022-12-23T17:45:58.784Z,87.13
2022-12-23T17:51:02.641Z,87.60
2022-12-23T17:56:23.280Z,86.90
2022-12-23T18:01:30.245Z,88.28
2022-12-23T18:06:34.325Z,89.02
2022-12-23T18:11:42.223Z,88.39
2022-12-23T18:16:45.630Z,88.73
2022-12-23T18:21:50.089Z,89.39
2022-12-23T18:26:54.684Z,90.35
2022-12-23T18:31:58.313Z,90.49
2022-12-23T18:37:02.300Z,91.81
2022-12-23T18:42:06.050Z,91.86
2022-12-23T18:47:10.953Z,92.58
2022-12-23T18:52:14.604Z,92.76
2022-12-23T18:57:18.421Z,94.09
2022-12-23T19:02:22.847Z,94.38
2022-12-23T19:07:26.135Z,93.77
2022-12-23T19:12:31.192Z,94.62
2022-12-23T19:17:35.560Z,95.82
2022-12-23T19:22:39.728Z,95.33
2022-12-23T19:27:44.296Z,94.80
2022-12-23T19:32:51.982Z,95.79
2022-12-23T19:37:55.614Z,96.40
2022-12-23T19:42:59.416Z,96.32
2022-12-23T19:48:03.201Z,97.06
2022-12-23T19:53:06.792Z,97.58
2022-12-23T19:58:10.357Z,97.00
2022-12-23T20:03:14.140Z,96.99
2022-12-23T20:08:18.465Z,97.54
2022-12-23T20:13:22.567Z,97.49
2022-12-23T20:18:25.969Z,97.86
2022-12-23T20:23:30.526Z,98.25
2022-12-23T20:28:35.060Z,98.56
2022-12-23T20:33:40.015Z,97.89
2022-12-23T20:38:46.648Z,97.98
2022-12-23T20:44:15.719Z,98.61
2022-12-23T20:49:14.863Z,98.18
2022-12-23T20:54:19.087Z,98.12
2022-12-23T20:59:22.227Z,98.51
2022-12-23T21:04:26.533Z,97.96
2022-12-23T21:09:30.546Z,97.81
2022-12-23T21:14:34.198Z,97.53
2022-12-23T21:19:38.335Z,97.57
2022-12-23T21:24:42.070Z,98.21
2022-12-23T21:29:46.078Z,98.32
2022-12-23T21:34:49.663Z,98.26
2022-12-23T21:39:53.242Z,98.50
2022-12-23T21:44:57.935Z,99.22
2022-12-23T21:50:01.552Z,99.14
2022-12-23T21:55:05.280Z,99.35
2022-12-23T22:00:09.071Z,99.38
2022-12-23T22:05:12.671Z,99.72
2022-12-23T22:10:16.942Z,100.00
2022-12-23T22:15:21.930Z,100.00
2022-12-23T22:20:26.171Z,100.00
2022-12-23T22:25:30.494Z,100.00
2022-12-23T22:30:35.243Z,100.00
2022-12-23T22:35:38.874Z,100.00
2022-12-23T22:40:43.259Z,100.00
2022-12-23T22:45:46.841Z,100.00
2022-12-23T22:50:50.805Z,100.00
2022-12-23T22:56:02.100Z,99.62
2022-12-23T23:01:06.370Z,99.77
2022-12-23T23:06:11.069Z,100.00
2022-12-23T23:11:15.520Z,100.00
2022-12-23T23:16:19.099Z,100.00
2022-12-23T23:21:23.441Z,100.00
2022-12-23T23:26:27.777Z,100.00
2022-12-23T23:31:41.710Z,100.00
2022-12-23T23:36:46.564Z,100.00
2022-12-23T23:41:51.494Z,100.00
2022-12-23T23:46:55.064Z,100.00
2022-12-23T23:51:58.640Z,100.00
2022-12-23T23:57:04.037Z,100.00
